Time;durP1;ratioP1;P1;durP2;ratioP2;P2;SDS_P1;SDS_P2;PMS_P1;PMS_P2;Temp;Humidity;BMP_temperature;BMP_pressure;BME280_temperature;BME280_humidity;BME280_pressure;Samples;Min_cycle;Max_cycle;Signal;HPM_P1;HPM_P2
2022/11/09 00:00:48;;;;;;;3.83;1.40;;;13.00;99.90;;;;;;5001204;28;20060;-64
2022/11/09 00:03:14;;;;;;;3.35;2.17;;;13.00;99.90;;;;;;4989535;28;20038;-64
2022/11/09 00:05:40;;;;;;;7.68;1.83;;;13.00;99.90;;;;;;4976547;28;20105;-64
2022/11/09 00:08:11;;;;;;;5.15;1.50;;;12.90;99.90;;;;;;4990425;28;20038;-64
2022/11/09 00:10:37;;;;;;;4.45;2.10;;;13.00;99.90;;;;;;4990616;28;20117;-64
2022/11/09 00:13:04;;;;;;;3.40;1.88;;;13.00;99.90;;;;;;4990356;28;20498;-64
2022/11/09 00:15:30;;;;;;;2.92;1.52;;;13.00;99.90;;;;;;4975467;28;20398;-64
2022/11/09 00:17:58;;;;;;;3.75;2.38;;;13.00;99.90;;;;;;4991464;28;20027;-64
2022/11/09 00:20:24;;;;;;;5.97;2.25;;;13.00;99.90;;;;;;4972484;28;20157;-63
2022/11/09 00:22:50;;;;;;;4.18;1.67;;;13.00;99.90;;;;;;4976126;28;20030;-63
2022/11/09 00:25:16;;;;;;;2.35;1.40;;;13.10;99.90;;;;;;4975366;28;20085;-63
2022/11/09 00:27:42;;;;;;;3.60;1.40;;;13.00;99.90;;;;;;4989954;28;20034;-64
2022/11/09 00:30:11;;;;;;;4.07;1.60;;;13.10;99.90;;;;;;4975468;28;20050;-64
2022/11/09 00:32:37;;;;;;;2.78;1.52;;;13.10;99.90;;;;;;4974276;28;20516;-64
2022/11/09 00:35:03;;;;;;;2.53;1.40;;;13.10;99.90;;;;;;4989843;28;20058;-64
2022/11/09 00:37:29;;;;;;;6.15;2.15;;;13.10;99.90;;;;;;4979968;28;20034;-65
2022/11/09 00:39:55;;;;;;;9.38;1.70;;;13.10;99.90;;;;;;4998618;28;20031;-65
2022/11/09 00:42:21;;;;;;;3.13;1.85;;;13.10;99.90;;;;;;4986008;28;20041;-66
2022/11/09 00:44:46;;;;;;;4.90;1.85;;;13.10;99.90;;;;;;4984938;28;20038;-65
2022/11/09 00:47:12;;;;;;;2.20;1.13;;;13.00;99.90;;;;;;4982334;28;20397;-65
2022/11/09 00:49:38;;;;;;;4.15;1.70;;;13.10;99.90;;;;;;4984033;28;20038;-65
2022/11/09 00:52:04;;;;;;;2.60;1.60;;;13.10;99.90;;;;;;4983802;28;20034;-65
2022/11/09 00:54:30;;;;;;;3.97;1.40;;;13.20;99.90;;;;;;4978774;28;20042;-65
2022/11/09 00:56:55;;;;;;;2.65;1.42;;;13.20;99.90;;;;;;4978028;28;20026;-65
2022/11/09 00:59:21;;;;;;;8.80;1.50;;;13.20;99.90;;;;;;4990671;28;20096;-65
2022/11/09 01:01:46;;;;;;;2.03;1.30;;;13.20;99.90;;;;;;4978137;28;20039;-65
2022/11/09 01:04:12;;;;;;;7.97;1.30;;;13.20;99.90;;;;;;4979703;28;20038;-65
2022/11/09 01:06:38;;;;;;;3.30;1.58;;;13.30;99.90;;;;;;4978708;28;20027;-66
2022/11/09 01:09:04;;;;;;;2.38;1.48;;;13.30;99.90;;;;;;4985814;28;20058;-65
2022/11/09 01:11:29;;;;;;;2.40;1.70;;;13.30;99.90;;;;;;4979789;28;20027;-66
2022/11/09 01:13:59;;;;;;;4.72;1.63;;;13.30;99.90;;;;;;4985795;28;20478;-66
2022/11/09 01:16:25;;;;;;;2.83;1.80;;;13.30;99.90;;;;;;4987095;28;20121;-65
2022/11/09 01:18:55;;;;;;;4.95;1.88;;;13.30;99.90;;;;;;4984360;28;20465;-66
2022/11/09 01:21:21;;;;;;;2.95;1.50;;;13.30;99.90;;;;;;4980499;28;20117;-66
2022/11/09 01:23:47;;;;;;;3.22;2.00;;;13.30;99.90;;;;;;4996602;28;20479;-65
2022/11/09 01:26:15;;;;;;;3.75;1.60;;;13.30;99.90;;;;;;4986739;28;20058;-64
2022/11/09 01:28:41;;;;;;;2.67;1.60;;;13.20;99.90;;;;;;4982478;28;20042;-64
2022/11/09 01:31:14;;;;;;;6.43;2.10;;;13.30;99.90;;;;;;4989272;28;20429;-65
2022/11/09 01:33:40;;;;;;;5.43;2.17;;;13.20;99.90;;;;;;4978379;28;20510;-65
2022/11/09 01:36:12;;;;;;;3.58;2.25;;;13.20;99.90;;;;;;4979667;28;20027;-65
2022/11/09 01:38:39;;;;;;;9.82;2.78;;;13.10;99.90;;;;;;4994781;28;20031;-65
2022/11/09 01:41:07;;;;;;;6.65;2.47;;;13.00;99.90;;;;;;4986579;28;20121;-65
2022/11/09 01:43:34;;;;;;;4.55;3.20;;;13.00;99.90;;;;;;4981409;28;20026;-65
2022/11/09 01:46:16;;;;;;;5.75;3.00;;;12.90;99.90;;;;;;4989125;28;20429;-65
2022/11/09 01:48:59;;;;;;;8.85;3.28;;;12.70;99.90;;;;;;4980962;28;20183;-65
2022/11/09 01:51:37;;;;;;;6.00;3.67;;;12.70;99.90;;;;;;4989957;28;20393;-65
2022/11/09 01:54:16;;;;;;;6.80;2.53;;;12.60;99.90;;;;;;4989043;28;20490;-65
2022/11/09 01:56:44;;;;;;;9.25;3.28;;;12.50;99.90;;;;;;4993130;28;20121;-65
2022/11/09 01:59:21;;;;;;;6.57;2.60;;;12.50;99.90;;;;;;4992232;28;20030;-65
2022/11/09 02:01:48;;;;;;;10.93;2.97;;;12.50;99.90;;;;;;4993395;28;20490;-65
2022/11/09 02:04:32;;;;;;;4.07;2.72;;;12.50;99.90;;;;;;4974134;28;20031;-65
2022/11/09 02:06:58;;;;;;;5.55;2.80;;;12.50;99.90;;;;;;4984504;28;20634;-65
2022/11/09 02:09:52;;;;;;;9.88;2.85;;;12.40;99.90;;;;;;4990281;28;20066;-65
2022/11/09 02:12:19;;;;;;;4.78;2.25;;;12.40;99.90;;;;;;4988103;28;20092;-65
2022/11/09 02:14:49;;;;;;;13.55;3.50;;;12.40;99.90;;;;;;4978215;28;20034;-65
2022/11/09 02:17:16;;;;;;;18.42;3.33;;;12.30;99.90;;;;;;4976577;28;20411;-65
2022/11/09 02:19:42;;;;;;;8.68;3.45;;;12.30;99.90;;;;;;4992497;28;20053;-65
2022/11/09 02:22:08;;;;;;;6.03;1.83;;;12.20;99.90;;;;;;4992406;28;20490;-65
2022/11/09 02:24:33;;;;;;;6.75;3.45;;;12.20;99.90;;;;;;4977762;28;20477;-65
2022/11/09 02:26:59;;;;;;;4.47;2.38;;;12.20;99.90;;;;;;4992382;28;20034;-65
2022/11/09 02:29:37;;;;;;;5.10;2.75;;;12.10;99.90;;;;;;4977505;28;20105;-65
2022/11/09 02:32:11;;;;;;;5.72;3.30;;;12.10;99.90;;;;;;4992597;28;20022;-65
2022/11/09 02:34:37;;;;;;;5.88;2.25;;;12.10;99.90;;;;;;4991772;28;20081;-65
2022/11/09 02:37:02;;;;;;;9.73;2.97;;;12.10;99.90;;;;;;4978186;28;20485;-65
2022/11/09 02:39:28;;;;;;;12.32;2.20;;;12.10;99.90;;;;;;4992503;28;20125;-65
2022/11/09 02:42:14;;;;;;;7.65;2.95;;;12.00;99.90;;;;;;4984727;28;20061;-65
2022/11/09 02:44:44;;;;;;;7.63;2.95;;;12.00;99.90;;;;;;4976941;28;20038;-65
2022/11/09 02:47:10;;;;;;;5.53;2.63;;;12.00;99.90;;;;;;4991771;28;20085;-65
2022/11/09 02:49:36;;;;;;;7.15;3.08;;;12.00;99.90;;;;;;4976630;28;20026;-65
2022/11/09 02:52:02;;;;;;;7.22;2.28;;;12.00;99.90;;;;;;4992095;28;20105;-65
2022/11/09 02:54:28;;;;;;;4.43;2.40;;;12.00;99.90;;;;;;4977158;28;20097;-65
2022/11/09 02:56:54;;;;;;;5.57;2.67;;;12.00;99.90;;;;;;4978873;28;20023;-65
2022/11/09 02:59:20;;;;;;;4.07;2.75;;;12.00;99.90;;;;;;5004963;28;20419;-65
2022/11/09 03:01:46;;;;;;;5.20;2.72;;;12.00;99.90;;;;;;4979894;28;20114;-65
2022/11/09 03:04:11;;;;;;;6.60;2.85;;;12.00;99.90;;;;;;4989416;28;20474;-65
2022/11/09 03:06:37;;;;;;;8.77;2.75;;;12.00;99.90;;;;;;4981063;28;20034;-64
2022/11/09 03:09:08;;;;;;;5.30;2.70;;;12.10;99.90;;;;;;4989221;28;20038;-65
2022/11/09 03:11:35;;;;;;;4.63;2.45;;;12.10;99.90;;;;;;4991656;28;20034;-65
2022/11/09 03:14:01;;;;;;;7.55;2.70;;;12.10;99.90;;;;;;4991491;28;20026;-65
2022/11/09 03:16:28;;;;;;;7.88;2.80;;;12.10;99.90;;;;;;4976367;28;20041;-65
2022/11/09 03:18:54;;;;;;;4.95;2.03;;;12.10;99.90;;;;;;4979817;28;20041;-65
2022/11/09 03:21:21;;;;;;;7.15;2.38;;;12.10;99.90;;;;;;4988393;28;20038;-65
2022/11/09 03:23:48;;;;;;;10.18;3.85;;;12.10;99.90;;;;;;4986385;28;20034;-65
2022/11/09 03:26:14;;;;;;;7.32;2.95;;;12.00;99.90;;;;;;4983056;28;20395;-65
2022/11/09 03:28:40;;;;;;;8.05;3.20;;;12.00;99.90;;;;;;4981170;28;20031;-65
2022/11/09 03:31:07;;;;;;;6.95;2.90;;;12.00;99.90;;;;;;4987776;28;20034;-65
2022/11/09 03:33:32;;;;;;;7.00;2.10;;;12.00;99.90;;;;;;4991061;28;20030;-65
2022/11/09 03:35:58;;;;;;;9.50;3.22;;;12.00;99.90;;;;;;4985248;28;20157;-66
2022/11/09 03:38:24;;;;;;;6.65;2.30;;;12.00;99.90;;;;;;5006105;28;20058;-66
2022/11/09 03:40:50;;;;;;;5.55;3.00;;;12.00;99.90;;;;;;4986511;28;20038;-66
2022/11/09 03:43:15;;;;;;;3.28;2.67;;;12.00;99.90;;;;;;4981993;28;20031;-66
2022/11/09 03:45:41;;;;;;;9.23;3.10;;;12.00;99.90;;;;;;4987169;28;20502;-66
2022/11/09 03:48:08;;;;;;;7.50;3.05;;;12.00;99.90;;;;;;4992370;28;20031;-66
2022/11/09 03:50:39;;;;;;;4.22;2.50;;;12.00;99.90;;;;;;4983260;28;20458;-66
2022/11/09 03:53:07;;;;;;;15.13;3.38;;;11.90;99.90;;;;;;4984126;28;20030;-66
2022/11/09 03:55:32;;;;;;;10.15;3.63;;;11.90;99.90;;;;;;4987900;28;20522;-66
2022/11/09 03:57:58;;;;;;;9.55;3.67;;;11.90;99.90;;;;;;4979522;28;20037;-66
2022/11/09 04:00:25;;;;;;;6.07;3.13;;;11.90;99.90;;;;;;4988313;28;20406;-66
2022/11/09 04:02:51;;;;;;;8.13;3.97;;;11.90;99.90;;;;;;4973387;28;20105;-66
2022/11/09 04:05:17;;;;;;;6.32;3.00;;;11.90;99.90;;;;;;4989888;28;20113;-66
2022/11/09 04:07:52;;;;;;;10.50;3.65;;;11.80;99.90;;;;;;4990141;28;20030;-66
2022/11/09 04:10:19;;;;;;;7.82;4.30;;;11.80;99.90;;;;;;4990414;28;20113;-67
2022/11/09 04:12:45;;;;;;;6.60;2.75;;;11.80;99.90;;;;;;4990229;28;20100;-66
2022/11/09 04:15:12;;;;;;;10.32;2.95;;;11.80;99.90;;;;;;4974674;28;20483;-67
2022/11/09 04:17:38;;;;;;;7.07;3.17;;;11.80;99.90;;;;;;4979711;28;20042;-66
2022/11/09 04:20:06;;;;;;;7.53;4.00;;;11.80;99.90;;;;;;5002887;28;20425;-66
2022/11/09 04:22:32;;;;;;;6.30;3.15;;;11.80;99.90;;;;;;4987007;28;20395;-66
2022/11/09 04:24:58;;;;;;;12.23;3.78;;;11.80;99.90;;;;;;4986124;28;20100;-66
2022/11/09 04:27:24;;;;;;;7.10;3.67;;;11.80;99.90;;;;;;4981985;28;20113;-66
2022/11/09 04:29:49;;;;;;;5.95;3.65;;;11.90;99.90;;;;;;4998394;28;20037;-66
2022/11/09 04:32:15;;;;;;;7.80;3.15;;;11.90;99.90;;;;;;4990301;28;20580;-66
2022/11/09 04:34:41;;;;;;;6.28;3.78;;;11.90;99.90;;;;;;4976190;28;20773;-66
2022/11/09 04:37:08;;;;;;;8.27;4.00;;;11.90;99.90;;;;;;4990940;28;20034;-66
2022/11/09 04:39:34;;;;;;;12.90;4.18;;;11.90;99.90;;;;;;4980072;28;20033;-64
2022/11/09 04:42:00;;;;;;;9.30;4.55;;;11.90;99.90;;;;;;4971673;28;20040;-66
2022/11/09 04:44:27;;;;;;;12.00;4.13;;;11.90;99.90;;;;;;4982840;28;20035;-64
2022/11/09 04:46:54;;;;;;;10.93;5.15;;;11.90;99.90;;;;;;4991299;28;20034;-64
2022/11/09 04:49:19;;;;;;;11.32;4.47;;;11.90;99.90;;;;;;4975054;28;20023;-65
2022/11/09 04:51:45;;;;;;;10.48;4.50;;;11.90;99.90;;;;;;4991529;28;20034;-65
2022/11/09 04:54:11;;;;;;;6.25;3.75;;;11.90;99.90;;;;;;4974146;28;20038;-65
2022/11/09 04:56:36;;;;;;;6.88;4.03;;;11.90;99.90;;;;;;4986044;28;20022;-65
2022/11/09 04:59:02;;;;;;;13.05;4.35;;;12.00;99.90;;;;;;4985631;28;20026;-65
2022/11/09 05:01:28;;;;;;;6.68;2.95;;;12.00;99.90;;;;;;4987928;28;20125;-65
2022/11/09 05:03:53;;;;;;;7.38;3.58;;;12.00;99.90;;;;;;4977623;28;20049;-65
2022/11/09 05:06:31;;;;;;;9.30;4.47;;;11.90;99.90;;;;;;4974229;28;20035;-65
2022/11/09 05:08:59;;;;;;;10.35;4.15;;;12.00;99.90;;;;;;4991090;28;20077;-65
2022/11/09 05:11:25;;;;;;;7.25;4.30;;;12.00;99.90;;;;;;4981188;28;20467;-65
2022/11/09 05:13:51;;;;;;;7.15;4.05;;;12.00;99.90;;;;;;4990858;28;20121;-65
2022/11/09 05:16:18;;;;;;;11.02;4.28;;;12.00;99.90;;;;;;4987943;28;20031;-65
2022/11/09 05:18:44;;;;;;;12.57;4.60;;;12.00;99.90;;;;;;4970844;28;20035;-66
2022/11/09 05:21:10;;;;;;;7.20;3.72;;;12.00;99.90;;;;;;4972843;28;20039;-65
2022/11/09 05:26:20;;;;;;;7.35;3.42;;;12.00;99.90;;;;;;4978344;28;20098;-65
2022/11/09 05:28:46;;;;;;;7.35;3.65;;;12.00;99.90;;;;;;4994946;28;20073;-65
2022/11/09 05:31:12;;;;;;;14.73;5.00;;;12.00;99.90;;;;;;4992666;28;20137;-65
2022/11/09 05:33:38;;;;;;;10.50;5.78;;;12.00;99.90;;;;;;4974968;28;20041;-65
2022/11/09 05:36:04;;;;;;;11.27;3.72;;;12.00;99.90;;;;;;4985729;28;20026;-66
2022/11/09 05:38:30;;;;;;;6.65;4.20;;;12.10;99.90;;;;;;4993319;28;20389;-66
2022/11/09 05:40:55;;;;;;;7.22;3.55;;;12.10;99.90;;;;;;4992885;28;20033;-66
2022/11/09 05:43:21;;;;;;;6.78;3.08;;;12.10;99.90;;;;;;4976661;28;20039;-66
2022/11/09 05:45:47;;;;;;;5.43;3.25;;;12.10;99.90;;;;;;4975460;28;20078;-66
2022/11/09 05:48:15;;;;;;;7.15;3.85;;;12.10;99.90;;;;;;5003161;28;20031;-66
2022/11/09 05:50:41;;;;;;;9.88;3.25;;;12.00;99.90;;;;;;4975573;28;20027;-66
2022/11/09 05:53:08;;;;;;;6.10;3.55;;;12.00;99.90;;;;;;5002705;28;20134;-66
2022/11/09 05:55:34;;;;;;;15.73;3.22;;;12.10;99.90;;;;;;4992155;28;20113;-67
2022/11/09 05:58:00;;;;;;;8.68;3.35;;;12.10;99.90;;;;;;4979387;28;20118;-66
2022/11/09 06:00:26;;;;;;;4.85;3.20;;;12.00;99.90;;;;;;4975385;28;20047;-66
2022/11/09 06:02:52;;;;;;;6.75;3.88;;;12.10;99.90;;;;;;5003023;28;20573;-66
2022/11/09 06:05:19;;;;;;;6.85;4.13;;;12.10;99.90;;;;;;4990698;28;20121;-66
2022/11/09 06:07:45;;;;;;;5.90;3.92;;;12.10;99.90;;;;;;4987659;28;20113;-66
2022/11/09 06:10:11;;;;;;;9.90;4.28;;;12.10;99.90;;;;;;4991532;28;20536;-67
2022/11/09 06:12:37;;;;;;;9.85;3.67;;;12.10;99.90;;;;;;4986658;28;20050;-66
2022/11/09 06:15:04;;;;;;;6.40;4.18;;;12.10;99.90;;;;;;4991955;28;20038;-66
2022/11/09 06:17:30;;;;;;;12.23;3.88;;;12.10;99.90;;;;;;4974928;28;20038;-66
2022/11/09 06:19:55;;;;;;;6.22;3.22;;;12.10;99.90;;;;;;4976706;28;20022;-66
2022/11/09 06:22:21;;;;;;;5.50;3.72;;;12.10;99.90;;;;;;4990949;28;20106;-66
2022/11/09 06:24:47;;;;;;;7.55;3.33;;;12.10;99.90;;;;;;4991579;28;20037;-65
2022/11/09 06:27:13;;;;;;;5.65;3.60;;;12.10;99.90;;;;;;4983092;28;20116;-65
2022/11/09 06:29:39;;;;;;;6.85;3.72;;;12.10;99.90;;;;;;4974547;28;20449;-65
2022/11/09 06:32:05;;;;;;;4.65;2.80;;;12.10;99.90;;;;;;4981455;28;20113;-65
2022/11/09 06:34:30;;;;;;;6.68;3.58;;;12.10;99.90;;;;;;4988564;28;20022;-66
2022/11/09 06:36:56;;;;;;;7.80;4.90;;;12.10;99.90;;;;;;4980241;28;20834;-66
2022/11/09 06:39:22;;;;;;;7.25;3.78;;;12.10;99.90;;;;;;4977284;28;20551;-66
2022/11/09 06:41:48;;;;;;;7.47;3.70;;;12.10;99.90;;;;;;4979033;28;20041;-66
2022/11/09 06:44:14;;;;;;;12.35;3.72;;;12.20;99.90;;;;;;5006266;28;20117;-65
2022/11/09 06:46:40;;;;;;;7.20;3.50;;;12.10;99.90;;;;;;4977948;28;20049;-66
2022/11/09 06:49:05;;;;;;;7.05;3.13;;;12.10;99.90;;;;;;4992800;28;20120;-66
2022/11/09 06:51:31;;;;;;;6.20;3.42;;;12.20;99.90;;;;;;4976571;28;20022;-67
2022/11/09 06:53:57;;;;;;;6.05;3.03;;;12.10;99.90;;;;;;4992753;28;20031;-67
2022/11/09 06:56:23;;;;;;;6.10;2.78;;;12.10;99.90;;;;;;4976043;28;20031;-67
2022/11/09 06:58:49;;;;;;;5.13;3.00;;;12.20;99.90;;;;;;4993090;28;20045;-67
2022/11/09 07:01:17;;;;;;;8.13;4.10;;;12.10;99.90;;;;;;4980308;28;20049;-67
2022/11/09 07:03:43;;;;;;;12.52;2.92;;;12.10;99.90;;;;;;4973173;28;20030;-66
2022/11/09 07:06:11;;;;;;;3.30;1.88;;;12.20;99.90;;;;;;4974370;28;20118;-66
2022/11/09 07:08:37;;;;;;;3.75;2.45;;;12.20;99.90;;;;;;5007736;28;20449;-66
2022/11/09 07:11:18;;;;;;;5.43;2.17;;;12.20;99.90;;;;;;4989942;28;20042;-67
2022/11/09 07:13:47;;;;;;;1.52;1.40;;;12.30;99.90;;;;;;4974519;28;20499;-67
2022/11/09 07:16:16;;;;;;;4.25;2.40;;;12.30;99.90;;;;;;4974310;28;20042;-67
2022/11/09 07:18:44;;;;;;;2.33;1.45;;;12.30;99.90;;;;;;4992829;28;20105;-67
2022/11/09 07:21:09;;;;;;;2.90;1.92;;;12.40;99.90;;;;;;4990517;28;20252;-65
2022/11/09 07:23:35;;;;;;;6.85;1.98;;;12.30;99.90;;;;;;4973037;28;20637;-65
2022/11/09 07:26:01;;;;;;;7.82;1.73;;;12.40;99.90;;;;;;4981221;28;20030;-65
2022/11/09 07:28:27;;;;;;;1.92;0.90;;;12.40;99.90;;;;;;4974119;28;20399;-66
2022/11/09 07:30:53;;;;;;;4.00;1.98;;;12.40;99.90;;;;;;4981790;28;20074;-65
2022/11/09 07:33:21;;;;;;;3.33;1.85;;;12.50;99.90;;;;;;4989703;28;20541;-65
2022/11/09 07:35:46;;;;;;;10.32;1.92;;;12.40;99.90;;;;;;4987879;28;20042;-65
2022/11/09 07:38:14;;;;;;;2.67;1.38;;;12.40;99.90;;;;;;4980764;28;20031;-66
2022/11/09 07:40:40;;;;;;;2.70;1.20;;;12.50;99.90;;;;;;4976369;28;20275;-66
2022/11/09 07:43:07;;;;;;;2.53;1.50;;;12.50;99.90;;;;;;4981736;28;20034;-65
2022/11/09 07:45:35;;;;;;;5.72;2.17;;;12.50;99.90;;;;;;4982781;28;20038;-66
2022/11/09 07:48:08;;;;;;;3.35;1.70;;;12.50;99.90;;;;;;4985109;28;20113;-66
2022/11/09 07:50:36;;;;;;;6.78;1.80;;;12.50;99.90;;;;;;4985593;28;20030;-68
2022/11/09 07:53:04;;;;;;;3.15;1.73;;;12.50;99.90;;;;;;4983525;28;20486;-66
2022/11/09 07:55:30;;;;;;;5.30;1.55;;;12.50;99.90;;;;;;4970982;28;20483;-66
2022/11/09 07:58:09;;;;;;;3.53;1.83;;;12.50;99.90;;;;;;4985544;28;20023;-66
2022/11/09 08:00:38;;;;;;;0.82;0.65;;;12.60;99.90;;;;;;4985811;28;20065;-66
2022/11/09 08:03:05;;;;;;;1.17;1.00;;;12.60;99.90;;;;;;4990191;28;20096;-66
2022/11/09 08:05:31;;;;;;;1.15;0.75;;;12.60;99.90;;;;;;4987343;28;20023;-66
2022/11/09 08:08:05;;;;;;;7.30;1.75;;;12.60;99.90;;;;;;4971354;28;20110;-66
2022/11/09 08:10:32;;;;;;;6.20;1.58;;;12.60;99.90;;;;;;4983298;28;20049;-67
2022/11/09 08:13:03;;;;;;;3.55;1.08;;;12.60;99.90;;;;;;4991895;28;20105;-67
2022/11/09 08:15:30;;;;;;;1.67;1.10;;;12.60;99.90;;;;;;4988779;28;20088;-66
2022/11/09 08:18:06;;;;;;;4.47;1.20;;;12.60;99.90;;;;;;4983370;28;20055;-66
2022/11/09 08:20:32;;;;;;;1.75;1.00;;;12.60;99.90;;;;;;4981223;28;21196;-67
2022/11/09 08:22:58;;;;;;;1.40;0.50;;;12.60;99.90;;;;;;4984420;28;20026;-67
2022/11/09 08:25:24;;;;;;;1.92;1.35;;;12.60;99.90;;;;;;4977907;28;20042;-66
2022/11/09 08:27:50;;;;;;;4.75;1.20;;;12.60;99.90;;;;;;4977631;28;20034;-67
2022/11/09 08:30:20;;;;;;;14.30;1.52;;;12.60;99.90;;;;;;4988565;28;20038;-66
2022/11/09 08:32:48;;;;;;;1.53;0.90;;;12.60;99.90;;;;;;4977111;28;20100;-66
2022/11/09 08:35:19;;;;;;;3.95;0.88;;;12.60;99.90;;;;;;4988683;28;20116;-67
2022/11/09 08:37:46;;;;;;;;;;;12.60;99.90;;;;;;5000283;28;20022;-67
2022/11/09 08:40:13;;;;;;;2.70;1.73;;;12.60;99.90;;;;;;4991139;28;19953;-66
2022/11/09 08:42:39;;;;;;;4.43;1.00;;;12.70;99.90;;;;;;4990180;28;20026;-66
2022/11/09 08:45:05;;;;;;;2.45;1.35;;;12.70;99.90;;;;;;4990643;28;20056;-66
2022/11/09 08:47:31;;;;;;;4.18;1.23;;;12.70;99.90;;;;;;4976733;28;20394;-66
2022/11/09 08:49:57;;;;;;;2.40;1.30;;;12.70;99.90;;;;;;4972273;28;20030;-65
2022/11/09 08:52:23;;;;;;;3.30;1.50;;;12.70;99.90;;;;;;4974447;28;20068;-65
2022/11/09 08:54:49;;;;;;;6.30;1.45;;;12.80;99.90;;;;;;4972676;28;20035;-66
2022/11/09 08:57:17;;;;;;;1.58;1.25;;;12.90;99.90;;;;;;4974534;28;20386;-66
2022/11/09 08:59:44;;;;;;;2.10;0.98;;;12.90;99.90;;;;;;4989873;28;20063;-66
2022/11/09 09:02:11;;;;;;;7.40;1.00;;;12.90;99.90;;;;;;4973390;28;20047;-66
2022/11/09 09:04:37;;;;;;;2.22;1.00;;;13.00;99.90;;;;;;4987363;28;20444;-66
2022/11/09 09:07:03;;;;;;;2.35;1.45;;;13.00;99.90;;;;;;4985336;28;20038;-66
2022/11/09 09:09:28;;;;;;;1.73;1.17;;;13.10;99.90;;;;;;4970474;28;20059;-67
2022/11/09 09:11:54;;;;;;;3.25;0.88;;;13.20;99.90;;;;;;4974599;28;20517;-66
2022/11/09 09:14:20;;;;;;;2.88;1.45;;;13.30;99.90;;;;;;4987808;28;20034;-66
2022/11/09 09:16:46;;;;;;;3.50;1.20;;;13.30;99.90;;;;;;4992594;28;20026;-66
2022/11/09 09:19:11;;;;;;;3.17;1.33;;;13.40;99.90;;;;;;5000348;28;20030;-66
2022/11/09 09:21:37;;;;;;;2.17;1.02;;;13.50;99.90;;;;;;4989174;28;20038;-66
2022/11/09 09:24:03;;;;;;;3.22;1.33;;;13.60;99.90;;;;;;4975237;28;20046;-67
2022/11/09 09:26:28;;;;;;;1.35;0.80;;;13.60;99.90;;;;;;4978560;28;20034;-67
2022/11/09 09:28:54;;;;;;;2.55;1.42;;;13.70;99.90;;;;;;4976459;28;20038;-67
2022/11/09 09:31:20;;;;;;;1.73;1.13;;;13.70;99.90;;;;;;4976076;28;20062;-67
2022/11/09 09:33:46;;;;;;;3.10;0.88;;;13.80;99.90;;;;;;4984489;28;20034;-67
2022/11/09 09:36:18;;;;;;;2.92;1.65;;;13.90;99.90;;;;;;4988564;28;20040;-68
2022/11/09 09:38:44;;;;;;;5.10;1.73;;;13.90;99.90;;;;;;4983081;28;20125;-66
2022/11/09 09:41:53;;;;;;;0.80;0.70;;;14.00;99.90;;;;;;4981667;28;20565;-66
2022/11/09 09:44:33;;;;;;;10.75;1.10;;;14.00;99.90;;;;;;4980759;28;20074;-66
2022/11/09 09:47:18;;;;;;;2.70;1.23;;;13.90;99.90;;;;;;4982336;28;20030;-67
2022/11/09 09:50:04;;;;;;;1.63;0.95;;;14.00;99.90;;;;;;4971496;28;20074;-66
2022/11/09 09:52:48;;;;;;;2.78;1.33;;;14.00;99.90;;;;;;4986342;28;20044;-67
2022/11/09 09:55:44;;;;;;;2.15;1.05;;;13.90;99.90;;;;;;4976786;28;20038;-67
2022/11/09 09:58:30;;;;;;;15.30;1.92;;;14.20;99.90;;;;;;4989744;28;20034;-66
2022/11/09 10:01:20;;;;;;;2.00;1.00;;;14.30;99.90;;;;;;4989001;28;20045;-67
2022/11/09 10:03:49;;;;;;;8.90;1.80;;;14.40;99.90;;;;;;4983500;28;20561;-66
2022/11/09 10:06:27;;;;;;;3.25;1.10;;;14.90;99.90;;;;;;4983205;28;20558;-66
2022/11/09 10:09:25;;;;;;;3.30;1.52;;;15.00;99.90;;;;;;4981928;28;20446;-66
2022/11/09 10:12:30;;;;;;;1.60;1.13;;;15.60;99.90;;;;;;4979413;28;20046;-67
2022/11/09 10:15:20;;;;;;;3.33;1.17;;;15.50;99.90;;;;;;4977147;28;20037;-67
2022/11/09 10:18:27;;;;;;;1.48;0.85;;;15.60;99.90;;;;;;4986585;28;20029;-66
2022/11/09 10:21:24;;;;;;;2.65;1.20;;;15.20;99.90;;;;;;4992491;28;20042;-66
2022/11/09 10:24:08;;;;;;;1.65;1.15;;;15.40;99.90;;;;;;4977689;28;20041;-67
2022/11/09 10:26:50;;;;;;;8.73;1.27;;;15.30;99.90;;;;;;4989206;28;20089;-66
2022/11/09 10:29:40;;;;;;;1.42;0.75;;;15.10;99.90;;;;;;4991290;28;20030;-66
2022/11/09 10:32:18;;;;;;;1.55;0.68;;;15.40;99.90;;;;;;4979672;28;20122;-67
2022/11/09 10:35:17;;;;;;;2.78;1.30;;;16.60;99.90;;;;;;4982097;28;20065;-66
2022/11/09 10:37:51;;;;;;;2.92;1.17;;;16.70;99.90;;;;;;4985580;28;20386;-67
2022/11/09 10:40:42;;;;;;;1.33;0.68;;;17.70;99.90;;;;;;4985562;28;20034;-67
2022/11/09 10:43:13;;;;;;;1.08;0.77;;;17.70;99.90;;;;;;4988524;28;20026;-66
2022/11/09 10:45:42;;;;;;;1.20;0.70;;;17.40;99.90;;;;;;4997459;28;20044;-66
2022/11/09 10:48:12;;;;;;;5.43;0.90;;;17.30;99.90;;;;;;4980194;28;20035;-68
2022/11/09 10:50:45;;;;;;;1.58;0.93;;;16.60;99.90;;;;;;4997487;28;20084;-66
2022/11/09 10:53:22;;;;;;;6.35;1.00;;;17.10;99.90;;;;;;4971455;28;20112;-67
2022/11/09 10:56:03;;;;;;;3.30;0.80;;;17.50;99.90;;;;;;4985944;28;20026;-67
2022/11/09 10:58:37;;;;;;;1.02;0.55;;;16.90;99.90;;;;;;4981678;28;20380;-67
2022/11/09 11:01:20;;;;;;;1.52;0.70;;;16.90;99.90;;;;;;4989340;28;20084;-67
2022/11/09 11:03:53;;;;;;;1.08;0.60;;;17.00;99.90;;;;;;4979248;28;20031;-67
2022/11/09 11:06:22;;;;;;;3.75;0.65;;;17.10;99.90;;;;;;5002800;28;20077;-65
2022/11/09 11:08:49;;;;;;;1.15;0.70;;;17.30;99.90;;;;;;4980177;28;20037;-67
2022/11/09 11:11:30;;;;;;;1.42;0.88;;;17.50;99.90;;;;;;4990779;28;20037;-67
2022/11/09 11:14:29;;;;;;;5.65;0.88;;;17.70;99.90;;;;;;4971401;28;20030;-67
2022/11/09 11:16:55;;;;;;;2.65;1.00;;;18.60;99.90;;;;;;4978568;28;20049;-67
2022/11/09 11:19:37;;;;;;;1.20;0.65;;;18.70;99.90;;;;;;4989465;28;20049;-67
2022/11/09 11:22:17;;;;;;;0.80;0.50;;;18.40;99.90;;;;;;4974873;28;20027;-67
2022/11/09 11:25:00;;;;;;;1.75;0.60;;;19.00;99.90;;;;;;4980886;28;20023;-67
2022/11/09 11:27:39;;;;;;;0.93;0.50;;;17.50;99.90;;;;;;4979304;28;20638;-66
2022/11/09 11:30:30;;;;;;;1.50;0.75;;;17.50;99.90;;;;;;5003281;28;20049;-66
2022/11/09 11:32:57;;;;;;;5.38;0.70;;;16.90;99.90;;;;;;4985656;28;20038;-67
2022/11/09 11:35:29;;;;;;;5.68;0.85;;;17.00;99.90;;;;;;4982878;28;20121;-67
2022/11/09 11:38:26;;;;;;;1.67;0.63;;;17.20;99.90;;;;;;4985470;28;20069;-68
2022/11/09 11:41:04;;;;;;;0.60;0.38;;;17.00;99.90;;;;;;4998427;28;20026;-68
2022/11/09 11:43:40;;;;;;;3.50;0.90;;;16.60;99.90;;;;;;4978181;28;20070;-67
2022/11/09 11:46:24;;;;;;;1.42;0.65;;;16.20;99.90;;;;;;4980947;28;20113;-68
2022/11/09 11:48:56;;;;;;;2.05;0.70;;;16.20;99.90;;;;;;4989004;28;20041;-67
2022/11/09 11:52:01;;;;;;;3.05;0.52;;;15.90;99.90;;;;;;4975901;28;20038;-66
2022/11/09 11:54:45;;;;;;;4.40;0.82;;;15.80;99.90;;;;;;4991135;28;20536;-67
2022/11/09 11:57:37;;;;;;;1.98;1.13;;;15.80;99.90;;;;;;4983895;28;20030;-67
2022/11/09 12:00:16;;;;;;;2.72;1.38;;;15.70;99.90;;;;;;4983642;28;20034;-67
2022/11/09 12:03:29;;;;;;;4.65;0.98;;;15.70;99.90;;;;;;5006517;28;20113;-67
2022/11/09 12:06:30;;;;;;;3.35;1.55;;;15.80;99.90;;;;;;4970420;28;20078;-67
2022/11/09 12:09:07;;;;;;;2.93;1.43;;;15.80;99.90;;;;;;4976914;28;20022;-66
2022/11/09 12:11:42;;;;;;;2.78;0.65;;;15.80;99.90;;;;;;4980139;28;20030;-67
2022/11/09 12:14:17;;;;;;;1.65;0.93;;;15.60;99.90;;;;;;4976780;28;20033;-67
2022/11/09 12:16:52;;;;;;;2.00;0.80;;;15.50;99.90;;;;;;4976679;28;20018;-66
2022/11/09 12:19:29;;;;;;;2.63;1.10;;;15.50;99.90;;;;;;4989879;28;20156;-67
2022/11/09 12:22:31;;;;;;;4.32;1.00;;;15.60;99.90;;;;;;4983338;28;20033;-67
2022/11/09 12:25:23;;;;;;;2.42;0.95;;;15.60;99.90;;;;;;4983693;28;20131;-66
2022/11/09 12:28:23;;;;;;;2.03;0.93;;;15.60;99.90;;;;;;4985370;28;20143;-67
2022/11/09 12:30:58;;;;;;;1.50;0.75;;;15.60;99.90;;;;;;4976698;28;20062;-67
2022/11/09 12:34:05;;;;;;;2.58;0.68;;;15.50;99.90;;;;;;4990124;28;20045;-66
2022/11/09 12:36:44;;;;;;;0.80;0.60;;;15.50;99.90;;;;;;4975098;28;20018;-67
2022/11/09 12:39:30;;;;;;;2.65;0.80;;;15.70;99.90;;;;;;4984437;28;20043;-66
2022/11/09 12:42:05;;;;;;;13.48;1.73;;;15.60;99.90;;;;;;4988425;28;20026;-66
2022/11/09 12:44:50;;;;;;;1.75;0.68;;;15.60;99.90;;;;;;4985767;28;20062;-66
2022/11/09 12:47:28;;;;;;;1.42;0.70;;;15.70;99.90;;;;;;4998883;28;20049;-66
2022/11/09 12:49:55;;;;;;;3.38;0.63;;;15.70;99.90;;;;;;4985615;28;20085;-67
2022/11/09 12:52:27;;;;;;;2.65;0.75;;;15.80;99.90;;;;;;4987536;28;20053;-68
2022/11/09 12:54:54;;;;;;;0.55;0.40;;;15.70;99.90;;;;;;4978199;28;20031;-66
2022/11/09 12:57:28;;;;;;;2.88;0.60;;;15.70;99.90;;;;;;4975150;28;20038;-67
2022/11/09 12:59:57;;;;;;;1.33;0.80;;;15.80;99.90;;;;;;4979368;28;20036;-66
2022/11/09 13:02:32;;;;;;;2.13;0.95;;;15.80;99.90;;;;;;4984470;28;20038;-66
2022/11/09 13:05:06;;;;;;;3.03;1.27;;;15.70;99.90;;;;;;4989159;28;20483;-66
2022/11/09 13:07:48;;;;;;;2.50;0.70;;;15.70;99.90;;;;;;4986005;28;20463;-66